• Join FlightAware (Why Join?)
  • Login
  • US Flag 
08:42PM EDT


 

Airport Tracker/Info


-or-


 

Live Flight TrackerFlight Track Log ✈ UCA3 ✈ 12-Feb-2013 ✈ KEWR - KBUF

Flight Track Log - Related Links

Times and Time Zones

All times are in EST time to prevent confusion due to time zone crossing. See the UCA3 flight status page for this flight to view local times or setup timezone preferences in your user account.

Time Position Orientation Groundspeed Altitude Reporting Facility
EST Latitude Longitude Course Direction KTS MPH feet Rate Location/Type
04:13PM 40.6667 -74.1833 277° West 140 161 900  Level New York TRACON
04:15PM 40.6744 -74.2653 277° West 137 158 5,000 1,680 Climbing New York Center
04:16PM 40.7131 -74.3000 326° Northwest 152 175 6,600 1,620 Climbing New York Center
04:17PM 40.7456 -74.3292 326° Northwest 159 183 8,300 1,800 Climbing New York Center
04:18PM 40.7819 -74.3611 326° Northwest 152 175 10,200 1,560 Climbing New York Center
04:19PM 40.8186 -74.3961 324° Northwest 152 175 11,500 840 Climbing New York Center
04:20PM 40.8569 -74.4336 324° Northwest 162 186 12,000 240 Climbing New York Center
04:21PM 40.9075 -74.4778 327° Northwest 197 227 12,000  Level New York Center
04:22PM 40.9581 -74.5272 324° Northwest 215 247 12,100 240 Climbing New York Center
04:23PM 41.0106 -74.5767 325° Northwest 229 264 12,500 900 Climbing New York Center
04:24PM 41.0572 -74.6178 326° Northwest 214 246 14,000 780 Climbing New York Center
04:25PM 41.1017 -74.6617 323° Northwest 199 229 14,100  Climbing New York Center
04:26PM 41.1458 -74.7139 318° Northwest 199 229 14,100  Level New York Center
04:27PM 41.1747 -74.7817 300° West 205 236 14,100  Level New York Center
04:28PM 41.2036 -74.8497 299° West 216 249 14,100  Level New York Center
04:29PM 41.2325 -74.9147 301° West 221 254 14,100  Level New York Center
04:30PM 41.2653 -74.9886 301° West 221 254 14,100 -60 Level New York Center
04:31PM 41.2922 -75.0536 299° West 213 245 14,000 -60 Descending New York Center
04:32PM 41.3211 -75.1219 299° West 208 239 14,000  Level New York Center
04:33PM 41.3458 -75.1817 299° West 208 239 14,000  Level New York Center
04:34PM 41.3764 -75.2525 300° West 208 239 14,000  Level New York Center
04:35PM 41.4053 -75.3181 300° West 208 239 14,000  Level New York Center
04:36PM 41.4339 -75.3864 300° West 208 239 14,000  Level New York Center
04:37PM 41.4412 -75.4072 300° West  Level FlightAware Approximate
04:37PM 41.4586 -75.4464 299° West 208 239 14,000  Level New York Center
04:38PM 41.4872 -75.5119 300° West 203 234 14,000  Level New York Center
04:39PM 41.5175 -75.5861 299° West 203 234 14,000  Level New York Center
04:40PM 41.5439 -75.6519 298° West 203 234 14,000  Level New York Center
04:42PM 41.5798 -75.7410 298° West  Level FlightAware Approximate
04:42PM 41.6008 -75.7892 298° West 203 234 14,000  Level New York Center
04:43PM 41.6272 -75.8550 298° West 203 234 14,000  Level New York Center
04:44PM 41.6514 -75.9178 297° West 203 234 14,000  Level New York Center
04:45PM 41.6817 -75.9925 299° West 203 234 14,000  Level New York Center
04:46PM 41.7097 -76.0614 299° West 203 234 14,000  Level New York Center
04:47PM 41.7358 -76.1300 297° West 203 234 14,000  Level New York Center
04:48PM 41.7622 -76.1906 300° West 208 239 14,000  Level New York Center
04:49PM 41.7903 -76.2597 299° West 208 239 14,000  Level New York Center
04:50PM 41.8200 -76.3372 297° West 208 239 14,000  Level New York Center
04:51PM 41.8461 -76.4008 299° West 208 239 14,000  Level New York Center
04:52PM 41.8742 -76.4700 299° West 208 239 14,000  Level New York Center
04:53PM 41.9019 -76.5392 298° West 208 239 14,000  Level New York Center
04:54PM 41.9278 -76.6083 297° West 208 239 14,000  Level New York Center
04:55PM 41.9556 -76.6778 298° West 208 239 14,000  Level New York Center
04:56PM 41.9869 -76.7558 298° West 208 239 14,000  Level New York Center
04:57PM 42.0092 -76.8108 299° West 208 239 14,000  Level New York Center
04:58PM 42.0472 -76.9086 298° West 219 252 14,000  Level Cleveland Center
04:59PM 42.0767 -76.9797 299° West 219 252 14,000  Level Cleveland Center
05:00PM 42.1017 -77.0511 295° West 219 252 14,000  Level Cleveland Center
05:01PM 42.1269 -77.1253 295° West 214 246 14,000  Level Cleveland Center
05:02PM 42.1519 -77.1997 294° West 214 246 14,000  Level Cleveland Center
05:03PM 42.1750 -77.2742 293° West 214 246 14,000  Level Cleveland Center
05:04PM 42.2000 -77.3483 294° West 214 246 14,000  Level Cleveland Center
05:05PM 42.2250 -77.4231 294° West 214 246 14,000  Level Cleveland Center
05:06PM 42.2500 -77.4975 294° West 214 246 14,000 -180 Level Cleveland Center
05:07PM 42.2750 -77.5747 294° West 214 246 13,700 -420 Descending Cleveland Center
05:08PM 42.3000 -77.6494 294° West 214 246 13,200 -540 Descending Cleveland Center
05:09PM 42.3247 -77.7269 293° West 219 252 12,700 -540 Descending Cleveland Center
05:10PM 42.3497 -77.8044 294° West 224 258 12,200 -480 Descending Cleveland Center
05:11PM 42.3700 -77.8711 292° West 230 265 11,800 -480 Descending Cleveland Center
05:12PM 42.3969 -77.9569 293° West 230 265 11,300 -540 Descending Cleveland Center
05:13PM 42.4236 -78.0347 295° West 230 265 10,800 -540 Descending Cleveland Center
05:14PM 42.4506 -78.1153 294° West 230 265 10,300 -420 Descending Cleveland Center
05:15PM 42.4750 -78.1931 293° West 230 265 10,000 -180 Descending Cleveland Center
05:16PM 42.4994 -78.2683 294° West 230 265 10,000 -60 Level Cleveland Center
05:17PM 42.5300 -78.3375 301° West 230 265 9,900 -480 Descending Cleveland Center
05:18PM 42.6011 -78.3492 353° North 215 247 9,100 -780 Descending Cleveland Center
05:19PM 42.6683 -78.3667 349° North 229 264 8,400 -660 Descending Cleveland Center
05:20PM 42.7417 -78.3867 349° North 258 297 7,800 -480 Descending Cleveland Center
05:22PM 42.8833 -78.4167 351° North 238 274 7,000 -300 Descending Buffalo TRACON
05:23PM 42.9500 -78.4333 350° North 227 261 7,000 -600 Level Buffalo TRACON
05:24PM 43.0000 -78.4833 324° Northwest 223 257 5,800 -1,500 Descending Buffalo TRACON
05:25PM 43.0500 -78.5167 334° Northwest 214 246 4,000 -1,740 Descending Buffalo TRACON
05:26PM 43.0500 -78.6000 270° West 222 255 2,400 -900 Descending Buffalo TRACON
05:27PM 43.0000 -78.6500 216° Southwest 191 220 2,300 -480 Descending Buffalo TRACON
05:28PM 42.9833 -78.6833 236° Southwest 114 131 1,500 -660 Descending Buffalo TRACON
05:29PM 42.9500 -78.7000 200° South 96 110 1,000 -540 Descending Buffalo TRACON
05:31PM 42.9210 -78.7043 324° Northwest  Level FlightAware Approximate